Rutland, South Dakota
Current Conditions -  °F | °C
As of 4:35 AM on Friday 21 Nov 2014 (Local Time) from KMDS Reporting Station
Clear Clear  
Wind Chill: -1°   Ceiling: Unl
Heat Index: 16°   Visibility: 10mi
Dew Point: 14°   Wind: 20mph
Humidity: 93%   Direction: 180°S
Pressure: 30.04"   Gusts: NA
Location:  44.09°N, 96.97°W
Report Text: KMDS 211035Z AUTO 18017KT 10SM CLR M09/M10 A3004 RMK AO2
Loading
Personal Weather Stations






























Interactive Weather Map New forecast layout! Learn more

10-Day Weather Forecast

Advertisements
Track Severe Weather on mobile